KCOS/COS METAR and TAF weather

Enter ICAO airport designator
Station Type Date Time Source
KCOS METAR 2020/12/05 04:54 UTC NOAA

KCOS 050454Z 33010KT 10SM CLR 06/M11 A3037 RMK AO2 SLP263 T00561106


Station Type Date Time Source
KCOS Decoded METAR 2020/12/05 04:54 UTC NOAA

COLORADO SPRINGS MUNI, CO, United States (KCOS) 38-49N 104-43W 1856M
Dec 04, 2020 - 11:54 PM EST / 2020.12.05 0454 UTC
Wind: from the NNW (330 degrees) at 12 MPH (10 KT):0
Visibility: 10 mile(s):0
Sky conditions: clear
Temperature: 42.1 F (5.6 C)
Dew Point: 12.9 F (-10.6 C)
Relative Humidity: 30%
Pressure (altimeter): 30.37 in. Hg (1028 hPa)
ob: KCOS 050454Z 33010KT 10SM CLR 06/M11 A3037 RMK AO2 SLP263 T00561106
cycle: 5

Station Type Date Time Source
KCOS TAF 2020/12/04 18:40 UTC NOAA

TAF KCOS 041738Z 0418/0518 33007KT P6SM SKC
FM041900 36008KT P6SM SKC
FM050900 35012KT P6SM SKC

Example: see airport list